createdAt,value
2018-09-25T00:00:08.501Z,8.11
2018-09-25T00:01:08.477Z,8.14
2018-09-25T00:02:08.451Z,8.10
2018-09-25T00:03:08.427Z,8.03
2018-09-25T00:04:08.403Z,8.03
2018-09-25T00:05:08.380Z,8.07
2018-09-25T00:06:08.357Z,7.99
2018-09-25T00:07:08.330Z,7.97
2018-09-25T00:08:08.306Z,8.00
2018-09-25T00:09:08.281Z,7.87
2018-09-25T00:10:08.263Z,7.93
2018-09-25T00:11:08.232Z,7.89
2018-09-25T00:12:08.208Z,7.92
2018-09-25T00:13:08.184Z,7.87
2018-09-25T00:14:08.160Z,7.87
2018-09-25T00:15:08.135Z,7.89
2018-09-25T00:16:08.111Z,7.90
2018-09-25T00:17:08.086Z,7.90
2018-09-25T00:18:08.061Z,7.87
2018-09-25T00:19:08.038Z,7.87
2018-09-25T00:20:08.013Z,7.92
2018-09-25T00:21:07.989Z,7.90
2018-09-25T00:22:07.964Z,7.85
2018-09-25T00:23:07.939Z,7.90
2018-09-25T00:24:07.916Z,7.82
2018-09-25T00:25:07.890Z,7.81
2018-09-25T00:26:07.865Z,7.78
2018-09-25T00:27:07.842Z,7.81
2018-09-25T00:28:07.818Z,7.84
2018-09-25T00:29:07.793Z,7.60
2018-09-25T00:30:07.768Z,7.66
2018-09-25T00:31:07.743Z,7.63
2018-09-25T00:32:07.719Z,7.62
2018-09-25T00:33:07.694Z,7.60
2018-09-25T00:34:07.668Z,7.55
2018-09-25T00:35:07.645Z,7.60
2018-09-25T00:36:07.621Z,7.58
2018-09-25T00:37:07.596Z,7.62
2018-09-25T00:38:07.570Z,7.62
2018-09-25T00:39:07.546Z,7.55
2018-09-25T00:40:07.522Z,7.45
2018-09-25T00:41:07.497Z,7.53
2018-09-25T00:42:07.472Z,7.52
2018-09-25T00:43:07.479Z,7.45
2018-09-25T00:44:07.423Z,7.52
2018-09-25T00:45:07.400Z,7.50
2018-09-25T00:46:07.373Z,7.52
2018-09-25T00:47:07.379Z,7.55
2018-09-25T00:48:07.327Z,7.42
2018-09-25T00:49:07.300Z,7.47
2018-09-25T00:50:07.275Z,7.52
2018-09-25T00:51:07.250Z,7.45
2018-09-25T00:52:07.226Z,7.53
2018-09-25T00:53:07.201Z,7.52
2018-09-25T00:54:07.178Z,7.55
2018-09-25T00:55:07.151Z,7.47
2018-09-25T00:56:07.127Z,7.50
2018-09-25T00:57:09.453Z,7.50
2018-09-25T00:58:07.077Z,7.53
2018-09-25T00:59:07.053Z,7.35
2018-09-25T01:00:07.029Z,7.49
2018-09-25T01:01:07.004Z,7.37
2018-09-25T01:02:06.977Z,7.41
2018-09-25T01:03:06.952Z,7.42
2018-09-25T01:04:06.929Z,7.31
2018-09-25T01:05:06.904Z,7.29
2018-09-25T01:06:06.877Z,7.31
2018-09-25T01:07:06.853Z,7.31
2018-09-25T01:08:06.829Z,7.27
2018-09-25T01:09:06.803Z,7.22
2018-09-25T01:10:06.779Z,7.22
2018-09-25T01:11:06.753Z,7.22
2018-09-25T01:12:06.728Z,7.20
2018-09-25T01:13:06.704Z,7.20
2018-09-25T01:14:06.679Z,7.13
2018-09-25T01:15:06.654Z,7.12
2018-09-25T01:16:06.630Z,7.05
2018-09-25T01:17:06.605Z,7.12
2018-09-25T01:18:06.579Z,7.13
2018-09-25T01:19:06.618Z,7.16
2018-09-25T01:20:06.531Z,7.20
2018-09-25T01:21:06.504Z,7.08
2018-09-25T01:22:06.478Z,7.08
2018-09-25T01:23:06.454Z,7.13
2018-09-25T01:24:07.931Z,7.12
2018-09-25T01:25:06.404Z,7.16
2018-09-25T01:26:06.378Z,7.08
2018-09-25T01:27:06.353Z,7.13
2018-09-25T01:28:06.329Z,7.04
2018-09-25T01:29:06.303Z,7.08
2018-09-25T01:30:07.028Z,7.15
2018-09-25T01:31:06.253Z,7.12
2018-09-25T01:32:06.228Z,7.08
2018-09-25T01:33:06.207Z,7.16
2018-09-25T01:34:06.177Z,7.13
2018-09-25T01:35:06.152Z,7.15
2018-09-25T01:36:06.127Z,7.09
2018-09-25T01:37:06.105Z,7.12
2018-09-25T01:38:06.076Z,7.17
2018-09-25T01:39:06.050Z,7.22
2018-09-25T01:40:06.028Z,7.20
2018-09-25T01:41:06.003Z,7.09
2018-09-25T01:42:05.976Z,7.15
2018-09-25T01:43:05.950Z,7.23
2018-09-25T01:44:05.926Z,7.20
2018-09-25T01:45:05.902Z,7.16
2018-09-25T01:46:06.624Z,7.19
2018-09-25T01:47:05.849Z,7.20
2018-09-25T01:48:05.824Z,7.23
2018-09-25T01:49:05.800Z,7.17
2018-09-25T01:50:05.773Z,7.15
2018-09-25T01:51:05.751Z,7.20
2018-09-25T01:52:05.724Z,7.23
2018-09-25T01:53:05.700Z,7.13
2018-09-25T01:54:05.673Z,7.22
2018-09-25T01:55:05.649Z,7.20
2018-09-25T01:56:05.623Z,7.17
2018-09-25T01:57:05.598Z,7.20
2018-09-25T01:58:05.572Z,7.23
2018-09-25T01:59:05.548Z,7.16
2018-09-25T02:00:05.523Z,7.19
2018-09-25T02:01:05.499Z,7.20
2018-09-25T02:02:05.470Z,7.12
2018-09-25T02:03:05.445Z,7.09
2018-09-25T02:04:05.420Z,7.12
2018-09-25T02:05:05.395Z,7.13
2018-09-25T02:06:05.369Z,7.12
2018-09-25T02:07:05.343Z,7.02
2018-09-25T02:08:05.318Z,7.05
2018-09-25T02:09:05.293Z,7.16
2018-09-25T02:10:05.267Z,7.08
2018-09-25T02:11:05.241Z,7.13
2018-09-25T02:12:05.217Z,7.12
2018-09-25T02:13:05.192Z,7.07
2018-09-25T02:14:05.165Z,7.13
2018-09-25T02:15:05.141Z,7.09
2018-09-25T02:16:05.116Z,7.16
2018-09-25T02:17:05.091Z,7.05
2018-09-25T02:18:05.063Z,7.04
2018-09-25T02:19:05.039Z,7.05
2018-09-25T02:20:05.013Z,7.01
2018-09-25T02:21:04.988Z,6.99
2018-09-25T02:22:04.962Z,7.05
2018-09-25T02:23:05.687Z,7.02
2018-09-25T02:24:04.911Z,7.07
2018-09-25T02:25:04.886Z,6.98
2018-09-25T02:26:04.859Z,6.95
2018-09-25T02:27:04.834Z,6.99
2018-09-25T02:28:04.810Z,7.01
2018-09-25T02:29:04.784Z,6.95
2018-09-25T02:30:04.758Z,6.95
2018-09-25T02:31:04.744Z,6.94
2018-09-25T02:32:04.708Z,6.99
2018-09-25T02:33:04.682Z,6.99
2018-09-25T02:34:04.657Z,6.98
2018-09-25T02:35:04.630Z,6.99
2018-09-25T02:36:04.607Z,6.95
2018-09-25T02:37:04.581Z,6.94
2018-09-25T02:38:04.556Z,6.90
2018-09-25T02:39:04.528Z,6.81
2018-09-25T02:40:04.503Z,6.90
2018-09-25T02:41:04.479Z,6.94
2018-09-25T02:42:04.452Z,6.95
2018-09-25T02:43:04.430Z,6.90
2018-09-25T02:44:05.903Z,6.94
2018-09-25T02:45:04.380Z,6.80
2018-09-25T02:46:04.350Z,6.87
2018-09-25T02:47:04.324Z,6.81
2018-09-25T02:48:04.300Z,6.91
2018-09-25T02:49:04.274Z,6.81
2018-09-25T02:50:04.249Z,6.91
2018-09-25T02:51:04.230Z,6.91
2018-09-25T02:52:04.199Z,6.94
2018-09-25T02:53:04.174Z,6.89
2018-09-25T02:54:04.148Z,6.91
2018-09-25T02:55:04.121Z,6.81
2018-09-25T02:56:04.097Z,6.81
2018-09-25T02:57:04.072Z,6.73
2018-09-25T02:58:04.044Z,6.81
2018-09-25T02:59:04.019Z,6.79
2018-09-25T03:00:03.994Z,6.83
2018-09-25T03:01:03.970Z,6.81
2018-09-25T03:02:03.944Z,6.77
2018-09-25T03:03:03.917Z,6.81
2018-09-25T03:04:03.897Z,6.83
2018-09-25T03:05:03.870Z,6.83
2018-09-25T03:06:04.591Z,6.79
2018-09-25T03:07:03.815Z,6.79
2018-09-25T03:08:03.790Z,6.69
2018-09-25T03:09:03.764Z,6.72
2018-09-25T03:10:03.740Z,6.72
2018-09-25T03:11:03.712Z,6.81
2018-09-25T03:12:03.687Z,6.79
2018-09-25T03:13:03.662Z,6.77
2018-09-25T03:14:03.636Z,6.76
2018-09-25T03:15:03.617Z,6.76
2018-09-25T03:16:03.589Z,6.80
2018-09-25T03:17:03.565Z,6.79
2018-09-25T03:18:03.538Z,6.65
2018-09-25T03:19:03.508Z,6.65
2018-09-25T03:20:03.483Z,6.66
2018-09-25T03:21:03.457Z,6.63
2018-09-25T03:22:03.433Z,6.68
2018-09-25T03:23:03.405Z,6.65
2018-09-25T03:24:03.448Z,6.62
2018-09-25T03:25:03.361Z,6.62
2018-09-25T03:26:03.333Z,6.62
2018-09-25T03:27:03.304Z,6.61
2018-09-25T03:28:03.277Z,6.63
2018-09-25T03:29:03.254Z,6.71
2018-09-25T03:30:03.227Z,6.59
2018-09-25T03:31:03.202Z,6.65
2018-09-25T03:32:03.175Z,6.61
2018-09-25T03:33:03.149Z,6.65
2018-09-25T03:34:03.123Z,6.63
2018-09-25T03:35:03.099Z,6.61
2018-09-25T03:36:03.074Z,6.66
2018-09-25T03:37:03.047Z,6.62
2018-09-25T03:38:03.021Z,6.61
2018-09-25T03:39:02.997Z,6.65
2018-09-25T03:40:02.973Z,6.56
2018-09-25T03:41:02.945Z,6.65
2018-09-25T03:42:02.920Z,6.63
2018-09-25T03:43:02.894Z,6.59
2018-09-25T03:44:02.869Z,6.65
2018-09-25T03:45:02.843Z,6.58
2018-09-25T03:46:02.815Z,6.59
2018-09-25T03:47:02.791Z,6.63
2018-09-25T03:48:02.767Z,6.61
2018-09-25T03:49:02.740Z,6.53
2018-09-25T03:50:02.713Z,6.58
2018-09-25T03:51:02.689Z,6.53
2018-09-25T03:52:02.662Z,6.53
2018-09-25T03:53:02.637Z,6.59
2018-09-25T03:54:02.649Z,6.50
2018-09-25T03:55:02.587Z,6.51
2018-09-25T03:56:02.561Z,6.59
2018-09-25T03:57:02.539Z,6.59
2018-09-25T03:58:02.510Z,6.56
2018-09-25T03:59:02.485Z,6.58
2018-09-25T04:00:02.458Z,6.54
2018-09-25T04:01:02.432Z,6.43
2018-09-25T04:02:02.406Z,6.50
2018-09-25T04:03:02.381Z,6.44
2018-09-25T04:04:02.357Z,6.46
2018-09-25T04:05:02.335Z,6.46
2018-09-25T04:06:02.317Z,6.46
2018-09-25T04:07:02.279Z,6.43
2018-09-25T04:08:02.255Z,6.46
2018-09-25T04:09:02.228Z,6.59
2018-09-25T04:10:02.202Z,6.53
2018-09-25T04:11:02.176Z,6.46
2018-09-25T04:12:02.152Z,6.53
2018-09-25T04:13:02.127Z,6.59
2018-09-25T04:14:02.100Z,6.56
2018-09-25T04:15:02.073Z,6.50
2018-09-25T04:16:02.049Z,6.50
2018-09-25T04:17:02.023Z,6.50
2018-09-25T04:18:02.006Z,6.50
2018-09-25T04:19:01.972Z,6.43
2018-09-25T04:20:02.696Z,6.50
2018-09-25T04:21:01.921Z,6.48
2018-09-25T04:22:01.901Z,6.50
2018-09-25T04:23:01.870Z,6.48
2018-09-25T04:24:01.843Z,6.53
2018-09-25T04:25:01.826Z,6.43
2018-09-25T04:26:01.791Z,6.46
2018-09-25T04:27:01.766Z,6.38
2018-09-25T04:28:01.740Z,6.38
2018-09-25T04:29:01.717Z,6.40
2018-09-25T04:30:01.692Z,6.35
2018-09-25T04:31:01.663Z,6.48
2018-09-25T04:32:01.637Z,6.38
2018-09-25T04:33:01.612Z,6.46
2018-09-25T04:34:01.587Z,6.38
2018-09-25T04:35:01.561Z,6.36
2018-09-25T04:36:01.536Z,6.38
2018-09-25T04:37:01.527Z,6.40
2018-09-25T04:38:01.482Z,6.38
2018-09-25T04:39:01.457Z,6.41
2018-09-25T04:40:01.442Z,6.33
2018-09-25T04:41:01.406Z,6.43
2018-09-25T04:42:01.380Z,6.40
2018-09-25T04:43:01.359Z,6.38
2018-09-25T04:44:01.328Z,6.35
2018-09-25T04:45:01.308Z,6.38
2018-09-25T04:46:01.276Z,6.29
2018-09-25T04:47:01.286Z,6.33
2018-09-25T04:48:01.226Z,6.40
2018-09-25T04:49:01.200Z,6.35
2018-09-25T04:50:01.172Z,6.36
2018-09-25T04:51:01.147Z,6.40
2018-09-25T04:52:01.124Z,6.38
2018-09-25T04:53:01.096Z,6.47
2018-09-25T04:54:01.069Z,6.46
2018-09-25T04:55:01.043Z,6.51
2018-09-25T04:56:01.018Z,6.40
2018-09-25T04:57:00.997Z,6.46
2018-09-25T04:58:00.987Z,6.46
2018-09-25T04:59:00.940Z,6.53
2018-09-25T05:00:00.916Z,6.46
2018-09-25T05:01:00.889Z,6.50
2018-09-25T05:02:00.862Z,6.58
2018-09-25T05:03:00.838Z,6.40
2018-09-25T05:04:00.812Z,6.44
2018-09-25T05:05:00.787Z,6.47
2018-09-25T05:06:00.759Z,6.48
2018-09-25T05:07:00.734Z,6.63
2018-09-25T05:08:00.710Z,6.66
2018-09-25T05:09:00.682Z,6.66
2018-09-25T05:10:00.657Z,6.62
2018-09-25T05:11:00.630Z,6.61
2018-09-25T05:12:00.610Z,6.62
2018-09-25T05:13:00.582Z,6.61
2018-09-25T05:14:00.553Z,6.51
2018-09-25T05:15:00.527Z,6.65
2018-09-25T05:16:00.503Z,6.62
2018-09-25T05:17:00.476Z,6.53
2018-09-25T05:18:00.455Z,6.53
2018-09-25T05:19:00.424Z,6.53
2018-09-25T05:20:00.399Z,6.53
2018-09-25T05:21:00.373Z,6.53
2018-09-25T05:22:00.352Z,6.53
2018-09-25T05:23:00.321Z,6.59
2018-09-25T05:24:00.297Z,6.51
2018-09-25T05:25:00.313Z,6.53
2018-09-25T05:26:00.244Z,6.59
2018-09-25T05:27:00.219Z,6.62
2018-09-25T05:28:00.193Z,6.63
2018-09-25T05:29:00.168Z,6.54
2018-09-25T05:30:00.142Z,6.54
2018-09-25T05:31:00.116Z,6.63
2018-09-25T05:32:00.091Z,6.62
2018-09-25T05:33:00.066Z,6.51
2018-09-25T05:34:00.039Z,6.53
2018-09-25T05:35:00.013Z,6.54
2018-09-25T05:35:59.988Z,6.61
2018-09-25T05:36:59.962Z,6.62
2018-09-25T05:37:59.936Z,6.59
2018-09-25T05:38:59.913Z,6.61
2018-09-25T05:39:59.886Z,6.58
2018-09-25T05:40:59.900Z,6.58
2018-09-25T05:41:59.839Z,6.59
2018-09-25T05:42:59.808Z,6.61
2018-09-25T05:43:59.782Z,6.63
2018-09-25T05:44:59.767Z,6.61
2018-09-25T05:45:59.734Z,6.53
2018-09-25T05:46:59.718Z,6.59
2018-09-25T05:47:59.739Z,6.47
2018-09-25T05:48:59.834Z,6.54
2018-09-25T05:49:59.631Z,6.51
2018-09-25T05:51:03.359Z,6.50
2018-09-25T05:51:59.580Z,6.47
2018-09-25T05:52:59.555Z,6.41
2018-09-25T05:53:59.528Z,6.62
2018-09-25T05:54:59.502Z,6.68
2018-09-25T05:55:59.478Z,6.69
2018-09-25T05:56:59.453Z,6.62
2018-09-25T05:57:59.426Z,6.79
2018-09-25T05:58:59.402Z,6.86
2018-09-25T05:59:59.377Z,6.80
2018-09-25T06:00:59.467Z,6.83
2018-09-25T06:01:59.326Z,6.97
2018-09-25T06:02:59.302Z,6.91
2018-09-25T06:03:59.275Z,7.04
2018-09-25T06:04:59.250Z,6.98
2018-09-25T06:05:59.227Z,6.99
2018-09-25T06:06:59.203Z,7.02
2018-09-25T06:07:59.187Z,7.12
2018-09-25T06:08:59.150Z,7.02
2018-09-25T06:09:59.122Z,7.16
2018-09-25T06:10:59.097Z,7.16
2018-09-25T06:11:59.072Z,7.09
2018-09-25T06:12:59.049Z,7.13
2018-09-25T06:13:59.021Z,7.17
2018-09-25T06:14:58.997Z,7.29
2018-09-25T06:15:58.972Z,7.29
2018-09-25T06:16:58.946Z,7.34
2018-09-25T06:18:04.925Z,7.42
2018-09-25T06:18:58.897Z,7.40
2018-09-25T06:19:58.870Z,7.41
2018-09-25T06:20:58.846Z,7.47
2018-09-25T06:21:58.820Z,7.44
2018-09-25T06:22:58.872Z,7.52
2018-09-25T06:24:02.523Z,7.59
2018-09-25T06:24:58.744Z,7.55
2018-09-25T06:25:58.720Z,7.63
2018-09-25T06:26:58.694Z,7.59
2018-09-25T06:27:58.671Z,7.72
2018-09-25T06:28:58.644Z,7.85
2018-09-25T06:29:58.619Z,7.82
2018-09-25T06:30:58.594Z,7.78
2018-09-25T06:31:58.569Z,7.85
2018-09-25T06:32:58.544Z,7.87
2018-09-25T06:33:58.519Z,7.97
2018-09-25T06:34:58.592Z,7.94
2018-09-25T06:35:58.468Z,8.02
2018-09-25T06:36:58.453Z,8.03
2018-09-25T06:37:58.418Z,8.03
2018-09-25T06:38:58.395Z,8.11
2018-09-25T06:39:58.371Z,8.12
2018-09-25T06:40:58.468Z,8.15
2018-09-25T06:41:58.319Z,8.15
2018-09-25T06:42:58.293Z,8.11
2018-09-25T06:43:58.269Z,8.20
2018-09-25T06:44:58.244Z,8.22
2018-09-25T06:45:58.218Z,8.21
2018-09-25T06:46:58.193Z,8.20
2018-09-25T06:47:58.169Z,8.18
2018-09-25T06:48:58.145Z,8.35
2018-09-25T06:49:58.120Z,8.29
2018-09-25T06:50:58.096Z,8.30
2018-09-25T06:51:58.071Z,8.35
2018-09-25T06:52:58.052Z,8.39
2018-09-25T06:53:58.021Z,8.40
2018-09-25T06:54:58.094Z,8.57
2018-09-25T06:55:57.972Z,8.51
2018-09-25T06:56:57.946Z,8.68
2018-09-25T06:57:57.922Z,8.75
2018-09-25T06:58:57.896Z,8.75
2018-09-25T06:59:57.871Z,8.84
2018-09-25T07:00:57.865Z,8.78
2018-09-25T07:01:57.824Z,8.86
2018-09-25T07:02:57.798Z,8.90
2018-09-25T07:03:57.772Z,8.94
2018-09-25T07:04:57.748Z,8.99
2018-09-25T07:05:57.723Z,8.96
2018-09-25T07:06:57.698Z,9.04
2018-09-25T07:07:57.674Z,9.01
2018-09-25T07:08:57.651Z,9.02
2018-09-25T07:09:57.727Z,9.10
2018-09-25T07:10:57.601Z,9.15
2018-09-25T07:11:57.576Z,9.12
2018-09-25T07:12:57.552Z,9.21
2018-09-25T07:13:57.527Z,9.16
2018-09-25T07:14:57.507Z,9.16
2018-09-25T07:15:57.479Z,9.12
2018-09-25T07:16:57.454Z,9.23
2018-09-25T07:17:57.457Z,9.23
2018-09-25T07:18:57.405Z,9.21
2018-09-25T07:19:57.381Z,9.25
2018-09-25T07:20:57.357Z,9.21
2018-09-25T07:21:57.331Z,9.24
2018-09-25T07:22:57.306Z,9.34
2018-09-25T07:23:57.282Z,9.35
2018-09-25T07:24:57.302Z,9.34
2018-09-25T07:25:57.232Z,9.39
2018-09-25T07:26:57.208Z,9.42
2018-09-25T07:27:57.185Z,9.46
2018-09-25T07:28:57.162Z,9.35
2018-09-25T07:29:57.137Z,9.50
2018-09-25T07:30:57.117Z,9.40
2018-09-25T07:31:57.089Z,9.53
2018-09-25T07:32:57.814Z,9.56
2018-09-25T07:33:57.040Z,9.56
2018-09-25T07:34:57.017Z,9.61
2018-09-25T07:35:56.991Z,9.68
2018-09-25T07:36:56.967Z,9.76
2018-09-25T07:37:56.941Z,9.66
2018-09-25T07:38:56.919Z,9.71
2018-09-25T07:39:56.894Z,9.71
2018-09-25T07:40:56.870Z,9.73
2018-09-25T07:41:56.845Z,9.64
2018-09-25T07:42:56.822Z,9.78
2018-09-25T07:43:56.797Z,9.82
2018-09-25T07:44:56.773Z,9.85
2018-09-25T07:45:56.748Z,9.96
2018-09-25T07:46:56.724Z,9.88
2018-09-25T07:47:56.700Z,9.86
2018-09-25T07:48:56.677Z,9.93
2018-09-25T07:49:56.656Z,10.10
2018-09-25T07:50:56.628Z,10.03
2018-09-25T07:51:56.605Z,10.14
2018-09-25T07:52:56.582Z,10.17
2018-09-25T07:53:56.555Z,10.12
2018-09-25T07:54:56.532Z,10.04
2018-09-25T07:55:56.514Z,10.17
2018-09-25T07:56:56.484Z,10.24
2018-09-25T07:57:56.459Z,10.28
2018-09-25T07:58:56.436Z,10.40
2018-09-25T07:59:56.412Z,10.37
2018-09-25T08:00:56.388Z,10.44
2018-09-25T08:01:56.365Z,10.33
2018-09-25T08:02:56.343Z,10.40
2018-09-25T08:03:56.318Z,10.39
2018-09-25T08:04:56.293Z,10.36
2018-09-25T08:05:56.269Z,10.39
2018-09-25T08:06:56.245Z,10.40
2018-09-25T08:07:56.222Z,10.36
2018-09-25T08:08:56.215Z,10.40
2018-09-25T08:09:56.175Z,10.53
2018-09-25T08:10:56.150Z,10.60
2018-09-25T08:11:56.127Z,10.55
2018-09-25T08:12:56.104Z,10.65
2018-09-25T08:13:56.078Z,10.76
2018-09-25T08:14:56.055Z,10.74
2018-09-25T08:15:56.031Z,10.88
2018-09-25T08:16:56.009Z,10.86
2018-09-25T08:17:55.983Z,10.92
2018-09-25T08:18:55.959Z,10.98
2018-09-25T08:19:55.937Z,10.94
2018-09-25T08:20:56.665Z,10.99
2018-09-25T08:21:55.889Z,11.01
2018-09-25T08:22:55.865Z,11.01
2018-09-25T08:23:55.879Z,10.99
2018-09-25T08:24:55.818Z,11.01
2018-09-25T08:25:55.797Z,11.09
2018-09-25T08:26:55.776Z,10.95
2018-09-25T08:27:55.748Z,10.88
2018-09-25T08:28:55.727Z,10.74
2018-09-25T08:29:55.703Z,10.95
2018-09-25T08:30:55.679Z,10.91
2018-09-25T08:31:55.655Z,10.99
2018-09-25T08:32:55.631Z,10.92
2018-09-25T08:33:55.606Z,11.11
2018-09-25T08:34:55.600Z,11.19
2018-09-25T08:35:55.560Z,11.09
2018-09-25T08:36:55.536Z,11.21
2018-09-25T08:37:55.512Z,11.14
2018-09-25T08:38:55.515Z,11.17
2018-09-25T08:39:55.465Z,11.20
2018-09-25T08:40:55.442Z,11.25
2018-09-25T08:41:55.417Z,11.27
2018-09-25T08:42:55.395Z,11.25
2018-09-25T08:43:55.373Z,11.28
2018-09-25T08:44:55.348Z,11.28
2018-09-25T08:45:55.416Z,11.35
2018-09-25T08:46:56.054Z,11.28
2018-09-25T08:47:55.277Z,11.36
2018-09-25T08:48:55.277Z,11.27
2018-09-25T08:49:55.230Z,11.43
2018-09-25T08:50:55.207Z,11.53
2018-09-25T08:51:55.187Z,11.47
2018-09-25T08:52:55.160Z,11.54
2018-09-25T08:53:55.137Z,11.64
2018-09-25T08:54:55.115Z,11.52
2018-09-25T08:55:55.092Z,11.64
2018-09-25T08:56:55.067Z,11.74
2018-09-25T08:57:55.044Z,11.61
2018-09-25T08:58:55.021Z,11.70
2018-09-25T08:59:54.999Z,11.83
2018-09-25T09:00:55.040Z,12.06
2018-09-25T09:01:54.956Z,12.06
2018-09-25T09:02:54.929Z,12.02
2018-09-25T09:03:54.908Z,12.13
2018-09-25T09:04:54.882Z,12.24
2018-09-25T09:05:54.858Z,12.26
2018-09-25T09:06:54.836Z,12.33
2018-09-25T09:07:54.812Z,12.37
2018-09-25T09:08:54.791Z,12.49
2018-09-25T09:09:54.766Z,12.45
2018-09-25T09:10:54.742Z,12.48
2018-09-25T09:11:54.724Z,12.42
2018-09-25T09:12:54.699Z,12.51
2018-09-25T09:13:54.673Z,12.49
2018-09-25T09:14:54.651Z,12.45
2018-09-25T09:15:54.628Z,12.49
2018-09-25T09:16:54.607Z,12.38
2018-09-25T09:17:54.582Z,12.34
2018-09-25T09:18:54.559Z,12.42
2018-09-25T09:19:54.557Z,12.38
2018-09-25T09:20:54.516Z,12.31
2018-09-25T09:21:54.492Z,12.46
2018-09-25T09:22:54.470Z,12.51
2018-09-25T09:23:54.447Z,12.37
2018-09-25T09:24:54.424Z,12.34
2018-09-25T09:25:54.401Z,12.51
2018-09-25T09:26:54.377Z,12.52
2018-09-25T09:27:54.355Z,12.54
2018-09-25T09:28:54.340Z,12.48
2018-09-25T09:29:55.810Z,12.46
2018-09-25T09:30:54.287Z,12.46
2018-09-25T09:31:54.263Z,12.37
2018-09-25T09:32:54.241Z,12.26
2018-09-25T09:33:54.217Z,12.33
2018-09-25T09:34:54.195Z,12.24
2018-09-25T09:35:57.174Z,12.24
2018-09-25T09:36:54.149Z,12.23
2018-09-25T09:37:54.126Z,12.33
2018-09-25T09:38:54.103Z,12.41
2018-09-25T09:39:54.081Z,12.39
2018-09-25T09:40:54.079Z,12.49
2018-09-25T09:41:55.170Z,12.46
2018-09-25T09:42:54.012Z,12.52
2018-09-25T09:43:53.991Z,12.52
2018-09-25T09:44:53.966Z,12.57
2018-09-25T09:45:53.942Z,12.59
2018-09-25T09:46:53.920Z,12.62
2018-09-25T09:47:53.900Z,12.70
2018-09-25T09:48:53.879Z,12.70
2018-09-25T09:49:53.851Z,12.77
2018-09-25T09:50:53.834Z,12.67
2018-09-25T09:51:53.811Z,12.63
2018-09-25T09:52:53.783Z,12.67
2018-09-25T09:53:53.760Z,12.69
2018-09-25T09:54:53.737Z,12.78
2018-09-25T09:55:53.714Z,12.81
2018-09-25T09:56:53.694Z,12.84
2018-09-25T09:57:53.669Z,12.96
2018-09-25T09:58:53.647Z,13.03
2018-09-25T09:59:53.625Z,12.95
2018-09-25T10:00:53.601Z,12.92
2018-09-25T10:01:53.578Z,12.95
2018-09-25T10:02:53.556Z,12.92
2018-09-25T10:03:53.533Z,12.85
2018-09-25T10:04:53.511Z,12.85
2018-09-25T10:05:53.488Z,12.89
2018-09-25T10:06:53.555Z,12.84
2018-09-25T10:07:53.443Z,12.97
2018-09-25T10:08:53.421Z,12.96
2018-09-25T10:09:53.399Z,12.99
2018-09-25T10:10:53.375Z,12.95
2018-09-25T10:11:53.353Z,12.99
2018-09-25T10:12:53.332Z,13.02
2018-09-25T10:13:53.308Z,13.02
2018-09-25T10:14:53.306Z,13.14
2018-09-25T10:15:53.263Z,13.12
2018-09-25T10:16:53.261Z,13.11
2018-09-25T10:17:53.238Z,13.22
2018-09-25T10:18:53.254Z,13.20
2018-09-25T10:19:53.194Z,13.29
2018-09-25T10:20:53.171Z,13.25
2018-09-25T10:21:53.147Z,13.14
2018-09-25T10:22:53.125Z,13.12
2018-09-25T10:23:53.103Z,13.14
2018-09-25T10:24:53.081Z,13.20
2018-09-25T10:25:53.057Z,13.14
2018-09-25T10:26:53.038Z,13.32
2018-09-25T10:27:53.013Z,13.37
2018-09-25T10:28:52.991Z,13.29
2018-09-25T10:29:52.967Z,13.25
2018-09-25T10:30:52.945Z,13.21
2018-09-25T10:31:52.923Z,13.22
2018-09-25T10:32:52.901Z,13.24
2018-09-25T10:33:52.926Z,13.29
2018-09-25T10:34:52.857Z,13.46
2018-09-25T10:35:52.834Z,13.47
2018-09-25T10:36:52.811Z,13.44
2018-09-25T10:37:52.788Z,13.44
2018-09-25T10:38:52.766Z,13.37
2018-09-25T10:39:52.743Z,13.36
2018-09-25T10:40:52.739Z,13.56
2018-09-25T10:41:52.699Z,13.59
2018-09-25T10:42:52.680Z,13.65
2018-09-25T10:43:52.656Z,13.61
2018-09-25T10:44:52.632Z,13.61
2018-09-25T10:45:52.609Z,13.59
2018-09-25T10:46:52.589Z,13.58
2018-09-25T10:47:52.564Z,13.61
2018-09-25T10:48:52.543Z,13.74
2018-09-25T10:49:52.581Z,13.71
2018-09-25T10:50:52.499Z,13.80
2018-09-25T10:51:52.478Z,13.91
2018-09-25T10:52:52.454Z,13.95
2018-09-25T10:53:52.431Z,14.02
2018-09-25T10:54:52.410Z,13.98
2018-09-25T10:55:52.496Z,13.98
2018-09-25T10:56:52.365Z,14.07
2018-09-25T10:57:52.342Z,13.98
2018-09-25T10:58:52.319Z,14.13
2018-09-25T10:59:52.298Z,14.19
2018-09-25T11:00:55.278Z,14.04
2018-09-25T11:01:52.253Z,14.17
2018-09-25T11:02:52.306Z,14.21
2018-09-25T11:03:52.209Z,14.32
2018-09-25T11:04:52.188Z,14.35
2018-09-25T11:05:52.165Z,14.32
2018-09-25T11:06:52.894Z,14.29
2018-09-25T11:07:52.121Z,14.29
2018-09-25T11:08:52.106Z,14.49
2018-09-25T11:09:52.079Z,14.50
2018-09-25T11:10:52.055Z,14.39
2018-09-25T11:11:52.033Z,14.37
2018-09-25T11:12:52.013Z,14.31
2018-09-25T11:13:51.990Z,14.42
2018-09-25T11:14:51.968Z,14.46
2018-09-25T11:15:51.947Z,14.46
2018-09-25T11:16:51.925Z,14.49
2018-09-25T11:17:51.905Z,14.60
2018-09-25T11:18:51.880Z,14.34
2018-09-25T11:19:51.859Z,14.34
2018-09-25T11:20:51.841Z,14.32
2018-09-25T11:21:51.814Z,14.35
2018-09-25T11:22:51.793Z,14.29
2018-09-25T11:23:51.771Z,14.35
2018-09-25T11:24:51.750Z,14.39
2018-09-25T11:25:51.728Z,14.47
2018-09-25T11:26:51.705Z,14.56
2018-09-25T11:27:51.683Z,14.53
2018-09-25T11:28:51.662Z,14.49
2018-09-25T11:29:51.639Z,14.47
2018-09-25T11:30:51.618Z,14.56
2018-09-25T11:31:51.596Z,14.50
2018-09-25T11:32:51.575Z,14.49
2018-09-25T11:33:54.555Z,14.53
2018-09-25T11:34:51.531Z,14.39
2018-09-25T11:35:51.512Z,14.31
2018-09-25T11:36:51.487Z,14.38
2018-09-25T11:37:51.465Z,14.46
2018-09-25T11:38:51.443Z,14.60
2018-09-25T11:39:51.425Z,14.69
2018-09-25T11:40:51.413Z,14.69
2018-09-25T11:41:51.378Z,14.74
2018-09-25T11:42:51.357Z,14.74
2018-09-25T11:43:51.339Z,14.81
2018-09-25T11:44:51.314Z,14.88
2018-09-25T11:45:51.321Z,14.90
2018-09-25T11:46:51.430Z,14.95
2018-09-25T11:47:51.251Z,14.91
2018-09-25T11:48:51.227Z,14.91
2018-09-25T11:49:51.233Z,14.78
2018-09-25T11:50:51.183Z,14.71
2018-09-25T11:51:51.162Z,14.75
2018-09-25T11:52:51.153Z,14.83
2018-09-25T11:53:51.119Z,14.83
2018-09-25T11:54:51.096Z,14.90
2018-09-25T11:55:51.075Z,14.84
2018-09-25T11:56:51.054Z,14.88
2018-09-25T11:57:51.031Z,15.01
2018-09-25T11:58:51.010Z,15.01
2018-09-25T11:59:50.989Z,15.03
2018-09-25T12:00:50.967Z,14.94
2018-09-25T12:01:50.945Z,14.94
2018-09-25T12:02:50.924Z,14.93
2018-09-25T12:03:50.903Z,15.02
2018-09-25T12:04:50.882Z,15.21
2018-09-25T12:05:50.861Z,15.24
2018-09-25T12:06:50.838Z,15.27
2018-09-25T12:07:50.819Z,15.26
2018-09-25T12:08:50.795Z,15.46
2018-09-25T12:09:50.772Z,15.45
2018-09-25T12:10:50.758Z,15.52
2018-09-25T12:11:50.729Z,15.60
2018-09-25T12:12:50.708Z,15.41
2018-09-25T12:13:50.748Z,15.43
2018-09-25T12:14:50.665Z,15.33
2018-09-25T12:15:50.645Z,15.31
2018-09-25T12:16:50.623Z,15.31
2018-09-25T12:17:50.601Z,15.26
2018-09-25T12:18:50.581Z,15.31
2018-09-25T12:19:50.565Z,15.27
2018-09-25T12:20:50.538Z,15.52
2018-09-25T12:21:50.516Z,15.45
2018-09-25T12:22:50.494Z,15.46
2018-09-25T12:23:50.473Z,15.54
2018-09-25T12:24:50.453Z,15.39
2018-09-25T12:25:50.430Z,15.35
2018-09-25T12:26:50.415Z,15.30
2018-09-25T12:27:54.895Z,15.30
2018-09-25T12:28:50.370Z,15.28
2018-09-25T12:29:50.348Z,15.19
2018-09-25T12:30:50.324Z,15.24
2018-09-25T12:31:50.303Z,15.26
2018-09-25T12:32:50.298Z,15.27
2018-09-25T12:33:50.266Z,15.26
2018-09-25T12:34:50.239Z,15.33
2018-09-25T12:35:50.218Z,15.28
2018-09-25T12:36:50.197Z,15.31
2018-09-25T12:37:50.175Z,15.38
2018-09-25T12:38:50.155Z,15.23
2018-09-25T12:39:50.133Z,15.33
2018-09-25T12:40:50.154Z,15.45
2018-09-25T12:41:50.093Z,15.43
2018-09-25T12:42:50.069Z,15.48
2018-09-25T12:43:50.048Z,15.43
2018-09-25T12:44:50.031Z,15.42
2018-09-25T12:45:50.005Z,15.48
2018-09-25T12:46:49.984Z,15.48
2018-09-25T12:47:49.964Z,15.54
2018-09-25T12:48:49.941Z,15.52
2018-09-25T12:49:49.920Z,15.41
2018-09-25T12:50:49.899Z,15.38
2018-09-25T12:51:49.878Z,15.33
2018-09-25T12:52:49.856Z,15.35
2018-09-25T12:53:49.836Z,15.36
2018-09-25T12:54:49.814Z,15.51
2018-09-25T12:55:49.793Z,15.42
2018-09-25T12:56:49.772Z,15.31
2018-09-25T12:57:49.751Z,15.49
2018-09-25T12:58:49.729Z,15.33
2018-09-25T12:59:49.708Z,15.20
2018-09-25T13:00:49.689Z,15.27
2018-09-25T13:01:49.666Z,15.38
2018-09-25T13:02:49.647Z,15.48
2018-09-25T13:03:49.647Z,15.48
2018-09-25T13:04:49.605Z,15.59
2018-09-25T13:05:50.331Z,15.54
2018-09-25T13:06:49.559Z,15.49